Gruver, Iowa
Current Conditions -  °F | °C
As of 6:52 PM on Wednesday 22 Oct 2014 (Local Time) from KEST Reporting Station
Clear Clear  
Wind Chill: 58°   Ceiling: Unl
Heat Index: 58°   Visibility: 10mi
Dew Point: 46°   Wind: 21mph
Humidity: 65%   Direction: 150°SSE
Pressure: 30"   Gusts: NA
Location:  43.39°N, 94.71°W
Report Text: KEST 222352Z AUTO 15018KT 10SM CLR 14/08 A3000 RMK AO2 PK WND 16028/2301 SLP164 T01440078 10189 20144 55005
Loading
Personal Weather Stations






























Interactive Weather Map
Tropical Storm Tracking
New forecast layout! Learn more

10-Day Weather Forecast

Advertisements
Track Severe Weather on mobile